Time;durP1;ratioP1;P1;durP2;ratioP2;P2;SDS_P1;SDS_P2;PMS_P1;PMS_P2;Temp;Humidity;BMP_temperature;BMP_pressure;BME280_temperature;BME280_humidity;BME280_pressure;Samples;Min_cycle;Max_cycle;Signal;HPM_P1;HPM_P2
2022/06/02 00:02:32;;;;;;;;;;;20.60;47.60;;;;;;5020622;28;19939;-73
2022/06/02 00:05:03;;;;;;;;;;;20.60;47.60;;;;;;5042241;28;19928;-74
2022/06/02 00:07:35;;;;;;;;;;;20.50;47.60;;;;;;5035890;28;19925;-75
2022/06/02 00:10:06;;;;;;;;;;;20.40;47.50;;;;;;5038928;28;19936;-73
2022/06/02 00:12:37;;;;;;;;;;;20.40;47.50;;;;;;5041086;28;19929;-74
2022/06/02 00:15:11;;;;;;;;;;;20.40;47.50;;;;;;5040393;28;19932;-76
2022/06/02 00:17:41;;;;;;;;;;;20.30;47.60;;;;;;5040125;28;19928;-73
2022/06/02 00:20:10;;;;;;;;;;;20.30;47.70;;;;;;5043368;28;19944;-73
2022/06/02 00:22:39;;;;;;;;;;;20.30;47.90;;;;;;5041293;28;19929;-74
2022/06/02 00:25:11;;;;;;;;;;;20.20;48.10;;;;;;5039113;28;19960;-74
2022/06/02 00:27:42;;;;;;;;;;;20.20;48.30;;;;;;5037592;28;19929;-74
2022/06/02 00:30:14;;;;;;;;;;;20.10;48.50;;;;;;5036054;28;20540;-74
2022/06/02 00:32:45;;;;;;;;;;;20.10;48.60;;;;;;5036729;28;19933;-74
2022/06/02 00:35:16;;;;;;;;;;;20.10;48.60;;;;;;5036043;28;20403;-76
2022/06/02 00:37:46;;;;;;;;;;;20.00;48.60;;;;;;5032804;28;20686;-74
2022/06/02 00:40:15;;;;;;;;;;;19.90;48.60;;;;;;5041217;28;19929;-73
2022/06/02 00:42:49;;;;;;;;;;;19.90;48.80;;;;;;5038050;28;19928;-74
2022/06/02 00:45:17;;;;;;;;;;;19.90;49.00;;;;;;5036839;28;20336;-75
2022/06/02 00:47:48;;;;;;;;;;;19.90;49.10;;;;;;5037392;28;19939;-74
2022/06/02 00:50:26;;;;;;;;;;;19.80;49.20;;;;;;5039016;28;20400;-76
2022/06/02 00:52:59;;;;;;;;;;;19.80;49.30;;;;;;5037565;28;19933;-76
2022/06/02 00:58:26;;;;;;;;;;;19.70;49.60;;;;;;5038616;28;19935;-76
2022/06/02 01:00:55;;;;;;;;;;;19.60;49.90;;;;;;5036133;28;19928;-75
2022/06/02 01:03:22;;;;;;;;;;;19.60;50.00;;;;;;5038979;28;19936;-76
2022/06/02 01:05:59;;;;;;;;;;;19.60;50.10;;;;;;5038791;28;19968;-75
2022/06/02 01:08:35;;;;;;;;;;;19.50;50.20;;;;;;5035438;28;19935;-74
2022/06/02 01:11:09;;;;;;;;;;;19.50;51.00;;;;;;5039549;28;19929;-75
2022/06/02 01:13:48;;;;;;;;;;;19.40;50.50;;;;;;5042846;28;19929;-75
2022/06/02 01:16:17;;;;;;;;;;;19.40;50.70;;;;;;5042119;28;20404;-75
2022/06/02 01:18:48;;;;;;;;;;;19.40;50.90;;;;;;5041278;28;19940;-76
2022/06/02 01:21:24;;;;;;;;;;;19.30;51.00;;;;;;5041340;28;19929;-77
2022/06/02 01:24:08;;;;;;;;;;;19.30;51.20;;;;;;5042389;28;19929;-75
2022/06/02 01:26:50;;;;;;;;;;;19.20;51.30;;;;;;5042748;28;19929;-76
2022/06/02 01:29:36;;;;;;;;;;;19.20;51.40;;;;;;5040568;28;19936;-77
2022/06/02 01:32:06;;;;;;;;;;;19.20;51.60;;;;;;5039694;28;19936;-74
2022/06/02 01:34:40;;;;;;;;;;;19.10;51.70;;;;;;5041813;28;20019;-74
2022/06/02 01:43:15;;;;;;;;;;;19.00;52.00;;;;;;5029098;28;19920;-74
2022/06/02 01:46:00;;;;;;;;;;;18.90;52.20;;;;;;5038339;28;19928;-76
2022/06/02 01:48:32;;;;;;;;;;;18.90;52.50;;;;;;5043037;28;19940;-74
2022/06/02 01:51:03;;;;;;;;;;;18.90;52.50;;;;;;5040241;28;19929;-74
2022/06/02 01:53:35;;;;;;;;;;;18.80;52.70;;;;;;5040482;28;19929;-76
2022/06/02 01:56:11;;;;;;;;;;;18.80;52.70;;;;;;5041496;28;19937;-74
2022/06/02 01:58:44;;;;;;;;;;;18.70;52.70;;;;;;5040881;28;19936;-74
2022/06/02 02:01:14;;;;;;;;;;;18.70;52.80;;;;;;5040308;28;20320;-75
2022/06/02 02:03:50;;;;;;;;;;;18.70;53.00;;;;;;5039788;28;19932;-74
2022/06/02 02:06:19;;;;;;;;;;;18.60;53.00;;;;;;5039593;28;19948;-76
2022/06/02 02:08:54;;;;;;;;;;;18.60;53.10;;;;;;5039374;28;19928;-74
2022/06/02 02:11:33;;;;;;;;;;;18.60;53.20;;;;;;5038048;28;19932;-74
2022/06/02 02:14:05;;;;;;;;;;;18.50;53.30;;;;;;5041492;28;19929;-75
2022/06/02 02:16:41;;;;;;;;;;;18.50;53.40;;;;;;5038484;28;20389;-74
2022/06/02 02:19:13;;;;;;;;;;;18.50;53.50;;;;;;5040754;28;19937;-74
2022/06/02 02:21:45;;;;;;;;;;;18.40;53.60;;;;;;5039493;28;19932;-76
2022/06/02 02:24:20;;;;;;;;;;;18.40;53.80;;;;;;5041190;28;19929;-75
2022/06/02 02:26:51;;;;;;;;;;;18.30;53.90;;;;;;5038816;28;19935;-74
2022/06/02 02:29:23;;;;;;;;;;;18.30;54.00;;;;;;5038570;28;20282;-76
2022/06/02 02:31:56;;;;;;;;;;;18.30;54.10;;;;;;5038183;28;19929;-76
2022/06/02 02:34:31;;;;;;;;;;;18.30;54.20;;;;;;5039623;28;19929;-75
2022/06/02 02:36:59;;;;;;;;;;;18.20;54.20;;;;;;5038908;28;20309;-74
2022/06/02 02:39:31;;;;;;;;;;;18.10;54.20;;;;;;5040599;28;19929;-74
2022/06/02 02:42:00;;;;;;;;;;;18.10;54.40;;;;;;5035618;28;20336;-74
2022/06/02 02:44:28;;;;;;;;;;;18.10;54.60;;;;;;5042094;28;19928;-74
2022/06/02 02:46:58;;;;;;;;;;;18.00;54.60;;;;;;5037972;28;19932;-74
2022/06/02 02:49:29;;;;;;;;;;;18.00;54.80;;;;;;5040535;28;19933;-74
2022/06/02 02:51:59;;;;;;;;;;;18.00;54.90;;;;;;5037842;28;19962;-74
2022/06/02 02:54:29;;;;;;;;;;;17.90;55.00;;;;;;5040451;28;19940;-75
2022/06/02 02:56:58;;;;;;;;;;;17.90;55.00;;;;;;5037918;28;19940;-74
2022/06/02 02:59:28;;;;;;;;;;;17.90;55.00;;;;;;5042068;28;20282;-75
2022/06/02 03:01:58;;;;;;;;;;;17.80;55.10;;;;;;5038234;28;19933;-74
2022/06/02 03:04:35;;;;;;;;;;;17.80;55.20;;;;;;5039431;28;19967;-74
2022/06/02 03:07:02;;;;;;;;;;;17.70;55.20;;;;;;5037469;28;19963;-74
2022/06/02 03:09:31;;;;;;;;;;;17.70;55.20;;;;;;5039435;28;20411;-74
2022/06/02 03:12:03;;;;;;;;;;;17.70;55.30;;;;;;5037041;28;20389;-73
2022/06/02 03:14:35;;;;;;;;;;;17.60;55.30;;;;;;5041150;28;19929;-74
2022/06/02 03:17:09;;;;;;;;;;;17.60;55.30;;;;;;5036808;28;19940;-74
2022/06/02 03:19:42;;;;;;;;;;;17.60;55.40;;;;;;5037787;28;19929;-74
2022/06/02 03:22:14;;;;;;;;;;;17.60;55.50;;;;;;5038333;28;20553;-75
2022/06/02 03:25:01;;;;;;;;;;;17.50;55.60;;;;;;5038434;28;19976;-74
2022/06/02 03:27:36;;;;;;;;;;;17.50;55.70;;;;;;5030283;28;19929;-74
2022/06/02 03:30:09;;;;;;;;;;;17.40;55.70;;;;;;5037802;28;19928;-73
2022/06/02 03:32:42;;;;;;;;;;;17.40;56.10;;;;;;5038645;28;19936;-75
2022/06/02 03:35:14;;;;;;;;;;;17.40;55.90;;;;;;5036361;28;19935;-74
2022/06/02 03:37:49;;;;;;;;;;;17.30;55.90;;;;;;5039597;28;19933;-74
2022/06/02 03:40:23;;;;;;;;;;;17.30;56.00;;;;;;5039771;28;19935;-75
2022/06/02 03:42:55;;;;;;;;;;;17.30;56.10;;;;;;5031215;28;19929;-76
2022/06/02 03:45:30;;;;;;;;;;;17.20;56.10;;;;;;5036358;28;19933;-74
2022/06/02 03:48:13;;;;;;;;;;;17.20;56.20;;;;;;5033551;28;20483;-73
2022/06/02 03:50:49;;;;;;;;;;;17.20;56.20;;;;;;5032991;28;20549;-74
2022/06/02 03:53:25;;;;;;;;;;;17.10;56.30;;;;;;5039616;28;19935;-77
2022/06/02 03:55:57;;;;;;;;;;;17.10;56.40;;;;;;5036169;28;19940;-74
2022/06/02 03:58:31;;;;;;;;;;;17.00;56.40;;;;;;5035338;28;19929;-74
2022/06/02 04:00:59;;;;;;;;;;;17.00;56.40;;;;;;5036500;28;19932;-73
2022/06/02 04:03:35;;;;;;;;;;;17.00;56.50;;;;;;5031434;28;19935;-74
2022/06/02 04:06:09;;;;;;;;;;;17.00;56.60;;;;;;5036283;28;19933;-73
2022/06/02 04:08:53;;;;;;;;;;;17.00;56.70;;;;;;5036188;28;19933;-76
2022/06/02 04:11:29;;;;;;;;;;;16.90;56.70;;;;;;5036735;28;20818;-75
2022/06/02 04:14:00;;;;;;;;;;;16.90;56.80;;;;;;5038285;28;19929;-74
2022/06/02 04:16:33;;;;;;;;;;;16.90;56.80;;;;;;5039730;28;19929;-74
2022/06/02 04:22:10;;;;;;;;;;;16.80;57.00;;;;;;5039010;28;19975;-74
2022/06/02 04:24:39;;;;;;;;;;;16.80;57.00;;;;;;5036061;28;19929;-74
2022/06/02 04:27:09;;;;;;;;;;;16.70;57.10;;;;;;5035104;28;19936;-76
2022/06/02 04:29:44;;;;;;;;;;;16.80;57.20;;;;;;5035873;28;19935;-76
2022/06/02 04:32:15;;;;;;;;;;;16.70;57.20;;;;;;5037111;28;19929;-74
2022/06/02 04:34:48;;;;;;;;;;;16.60;57.20;;;;;;5039006;28;19940;-74
2022/06/02 04:37:18;;;;;;;;;;;16.70;57.40;;;;;;5038134;28;19932;-74
2022/06/02 04:39:51;;;;;;;;;;;16.60;57.40;;;;;;5038221;28;19944;-75
2022/06/02 04:42:23;;;;;;;;;;;16.60;57.50;;;;;;5038063;28;19929;-76
2022/06/02 04:44:54;;;;;;;;;;;16.60;57.60;;;;;;5039455;28;19932;-74
2022/06/02 04:47:26;;;;;;;;;;;16.60;57.70;;;;;;5040764;28;19929;-75
2022/06/02 04:49:55;;;;;;;;;;;16.50;57.80;;;;;;5040156;28;20523;-75
2022/06/02 04:52:28;;;;;;;;;;;16.50;57.70;;;;;;5044843;28;19933;-75
2022/06/02 04:54:59;;;;;;;;;;;16.50;57.90;;;;;;5044647;28;19935;-75
2022/06/02 04:57:30;;;;;;;;;;;16.50;57.90;;;;;;5037969;28;19929;-74
2022/06/02 05:00:00;;;;;;;;;;;16.50;58.00;;;;;;5045220;28;19929;-74
2022/06/02 05:02:33;;;;;;;;;;;16.50;58.10;;;;;;5040491;28;19928;-74
2022/06/02 05:05:05;;;;;;;;;;;16.50;58.10;;;;;;5044165;28;20609;-74
2022/06/02 05:07:48;;;;;;;;;;;16.50;58.20;;;;;;5039657;28;19987;-75
2022/06/02 05:10:22;;;;;;;;;;;16.40;58.20;;;;;;5039045;28;19982;-75
2022/06/02 05:12:51;;;;;;;;;;;16.40;58.30;;;;;;5040072;28;20301;-75
2022/06/02 05:15:25;;;;;;;;;;;16.40;58.40;;;;;;5040108;28;21258;-74
2022/06/02 05:18:06;;;;;;;;;;;16.40;58.40;;;;;;5041112;28;19948;-75
2022/06/02 05:20:51;;;;;;;;;;;16.40;58.50;;;;;;5039610;28;19940;-75
2022/06/02 05:23:35;;;;;;;;;;;16.40;58.50;;;;;;5042835;28;19928;-77
2022/06/02 05:26:19;;;;;;;;;;;16.40;58.40;;;;;;5040849;28;19936;-74
2022/06/02 05:29:05;;;;;;;;;;;16.40;58.40;;;;;;5041039;28;19950;-75
2022/06/02 05:31:55;;;;;;;;;;;16.40;58.40;;;;;;5041116;28;19940;-74
2022/06/02 05:34:33;;;;;;;;;;;16.40;58.30;;;;;;5019706;28;19933;-74
2022/06/02 05:37:06;;;;;;;;;;;16.40;58.20;;;;;;5039889;28;19929;-75
2022/06/02 05:39:42;;;;;;;;;;;16.40;58.10;;;;;;5041382;28;19929;-75
2022/06/02 05:42:14;;;;;;;;;;;16.40;58.00;;;;;;5038371;28;19929;-74
2022/06/02 05:44:58;;;;;;;;;;;16.40;58.00;;;;;;5038189;28;19992;-74
2022/06/02 05:47:33;;;;;;;;;;;16.40;57.90;;;;;;5026970;28;19945;-75
2022/06/02 05:50:06;;;;;;;;;;;16.40;57.90;;;;;;5040836;28;19928;-76
2022/06/02 05:52:36;;;;;;;;;;;16.40;57.90;;;;;;5041083;28;20020;-74
2022/06/02 05:55:12;;;;;;;;;;;16.40;57.90;;;;;;5039099;28;19932;-74
2022/06/02 05:57:44;;;;;;;;;;;16.40;58.00;;;;;;5036786;28;20023;-74
2022/06/02 06:00:18;;;;;;;;;;;16.40;58.00;;;;;;5037804;28;19944;-76
2022/06/02 06:05:42;;;;;;;;;;;16.50;58.00;;;;;;5086119;27;19925;-74
2022/06/02 06:08:27;;;;;;;;;;;16.50;58.00;;;;;;5070475;28;20062;-75
2022/06/02 06:11:03;;;;;;;;;;;16.40;57.90;;;;;;5067215;28;19924;-74
2022/06/02 06:13:46;;;;;;;;;;;16.50;57.90;;;;;;5072481;28;19939;-76
2022/06/02 06:16:16;;;;;;;;;;;16.50;57.90;;;;;;5058496;28;19933;-74
2022/06/02 06:18:47;;;;;;;;;;;16.40;57.90;;;;;;5053997;28;19933;-75
2022/06/02 06:21:22;;;;;;;;;;;16.50;57.90;;;;;;5054217;28;19935;-76
2022/06/02 06:24:10;;;;;;;;;;;16.50;57.80;;;;;;5057293;28;19940;-74
2022/06/02 06:26:45;;;;;;;;;;;16.50;57.80;;;;;;5058485;28;19929;-74
2022/06/02 06:29:21;;;;;;;;;;;16.50;57.80;;;;;;5057016;28;20388;-75
2022/06/02 06:31:57;;;;;;;;;;;16.50;57.70;;;;;;5060311;28;20002;-75
2022/06/02 06:34:29;;;;;;;;;;;16.60;57.70;;;;;;5051129;28;20790;-75
2022/06/02 06:37:03;;;;;;;;;;;16.50;57.70;;;;;;5058352;28;19928;-75
2022/06/02 06:39:34;;;;;;;;;;;16.50;57.50;;;;;;5057861;28;19932;-75
2022/06/02 06:42:10;;;;;;;;;;;16.60;57.50;;;;;;5048001;28;20541;-75
2022/06/02 06:44:40;;;;;;;;;;;16.60;57.50;;;;;;5061893;28;20460;-74
2022/06/02 06:47:08;;;;;;;;;;;16.60;57.40;;;;;;5053845;28;20047;-74
2022/06/02 06:49:44;;;;;;;;;;;16.60;57.30;;;;;;5053544;28;20443;-75
2022/06/02 06:52:18;;;;;;;;;;;16.60;57.20;;;;;;5055068;28;19935;-75
2022/06/02 06:54:47;;;;;;;;;;;16.60;57.20;;;;;;5058019;28;19971;-74
2022/06/02 06:57:18;;;;;;;;;;;16.70;57.30;;;;;;5058139;28;19933;-74
2022/06/02 06:59:48;;;;;;;;;;;16.60;57.00;;;;;;5060074;28;19928;-74
2022/06/02 07:02:18;;;;;;;;;;;16.70;57.00;;;;;;5031700;28;19929;-74
2022/06/02 07:04:48;;;;;;;;;;;16.70;57.10;;;;;;5041089;28;20510;-75
2022/06/02 07:07:18;;;;;;;;;;;16.70;57.00;;;;;;5047339;28;19936;-76
2022/06/02 07:09:50;;;;;;;;;;;16.70;56.90;;;;;;5051438;28;20494;-75
2022/06/02 07:15:07;;;;;;;;;;;16.80;56.90;;;;;;5053842;28;20637;-78
2022/06/02 07:17:39;;;;;;;;;;;16.80;57.00;;;;;;5037593;28;19954;-76
2022/06/02 07:20:07;;;;;;;;;;;16.80;57.10;;;;;;5033244;28;19929;-75
2022/06/02 07:22:42;;;;;;;;;;;16.80;57.10;;;;;;5037555;28;19936;-77
2022/06/02 07:25:15;;;;;;;;;;;16.80;57.00;;;;;;5034044;28;19983;-74
2022/06/02 07:27:44;;;;;;;;;;;16.80;56.90;;;;;;5033975;28;20278;-75
2022/06/02 07:30:20;;;;;;;;;;;16.90;56.90;;;;;;5030892;28;19928;-75
2022/06/02 07:32:52;;;;;;;;;;;16.90;56.70;;;;;;5037624;28;20048;-74
2022/06/02 07:35:31;;;;;;;;;;;16.90;56.60;;;;;;5040154;28;19928;-74
2022/06/02 07:38:02;;;;;;;;;;;16.90;56.60;;;;;;5039247;28;19933;-74
2022/06/02 07:40:33;;;;;;;;;;;16.90;56.50;;;;;;5039118;28;20354;-75
2022/06/02 07:43:18;;;;;;;;;;;16.90;56.30;;;;;;5039281;28;20396;-74
2022/06/02 07:45:50;;;;;;;;;;;17.00;56.20;;;;;;5028226;28;19929;-74
2022/06/02 07:48:27;;;;;;;;;;;17.00;56.20;;;;;;5058590;28;19957;-75
2022/06/02 07:50:56;;;;;;;;;;;17.00;55.90;;;;;;5057854;28;19928;-76
2022/06/02 07:53:37;;;;;;;;;;;17.00;55.50;;;;;;5066461;28;20396;-75
2022/06/02 07:56:08;;;;;;;;;;;17.10;55.60;;;;;;5055476;28;19968;-75
2022/06/02 07:58:39;;;;;;;;;;;17.10;55.40;;;;;;5060774;28;19932;-75
2022/06/02 08:01:08;;;;;;;;;;;17.10;55.40;;;;;;5053929;28;19936;-73
2022/06/02 08:03:50;;;;;;;;;;;17.10;55.40;;;;;;5058920;28;19929;-74
2022/06/02 08:06:20;;;;;;;;;;;17.20;54.90;;;;;;5056260;28;19939;-76
2022/06/02 08:09:09;;;;;;;;;;;17.30;54.60;;;;;;5057689;28;19928;-74
2022/06/02 08:11:39;;;;;;;;;;;17.30;54.30;;;;;;5058547;28;19928;-74
2022/06/02 08:14:13;;;;;;;;;;;17.30;54.40;;;;;;5056680;28;19928;-74
2022/06/02 08:16:47;;;;;;;;;;;17.30;54.40;;;;;;5051829;28;19932;-76
2022/06/02 08:19:14;;;;;;;;;;;17.30;54.50;;;;;;5054814;28;20319;-77
2022/06/02 08:21:43;;;;;;;;;;;17.30;54.50;;;;;;5058882;28;19967;-75
2022/06/02 08:24:30;;;;;;;;;;;17.30;54.60;;;;;;5058632;28;19979;-77
2022/06/02 08:27:07;;;;;;;;;;;17.40;54.90;;;;;;5064311;28;20028;-76
2022/06/02 08:29:40;;;;;;;;;;;17.40;54.50;;;;;;5056633;28;19947;-74
2022/06/02 08:32:20;;;;;;;;;;;17.40;54.20;;;;;;5062774;28;19931;-72
2022/06/02 08:34:50;;;;;;;;;;;17.50;54.40;;;;;;5059490;28;19933;-76
2022/06/02 08:37:20;;;;;;;;;;;17.50;54.20;;;;;;5065138;28;19928;-77
2022/06/02 08:40:07;;;;;;;;;;;17.50;54.10;;;;;;5062073;28;20312;-76
2022/06/02 08:42:57;;;;;;;;;;;17.60;54.10;;;;;;5055276;28;19928;-75
2022/06/02 08:45:32;;;;;;;;;;;17.60;53.80;;;;;;5059633;28;19928;-76
2022/06/02 08:48:22;;;;;;;;;;;17.60;53.70;;;;;;5060502;28;19928;-75
2022/06/02 08:51:12;;;;;;;;;;;17.70;53.60;;;;;;5046205;28;20376;-75
2022/06/02 08:54:06;;;;;;;;;;;17.70;53.50;;;;;;5068804;28;19928;-74
2022/06/02 08:56:48;;;;;;;;;;;17.70;53.40;;;;;;5057240;28;20435;-76
2022/06/02 08:59:34;;;;;;;;;;;17.80;53.20;;;;;;5063843;28;19963;-76
2022/06/02 09:02:14;;;;;;;;;;;17.90;53.20;;;;;;5060198;28;19928;-75
2022/06/02 09:04:58;;;;;;;;;;;17.90;53.00;;;;;;5063053;28;19936;-77
2022/06/02 09:07:40;;;;;;;;;;;17.90;52.90;;;;;;5065833;28;19936;-77
2022/06/02 09:10:24;;;;;;;;;;;18.00;52.70;;;;;;5061662;28;20288;-75
2022/06/02 09:13:05;;;;;;;;;;;18.00;52.60;;;;;;5066242;28;19939;-78
2022/06/02 09:15:41;;;;;;;;;;;18.00;52.50;;;;;;5066168;28;20529;-75
2022/06/02 09:18:16;;;;;;;;;;;18.10;52.40;;;;;;5063867;28;20590;-74
2022/06/02 09:20:47;;;;;;;;;;;18.20;52.30;;;;;;5059078;28;19964;-77
2022/06/02 09:23:28;;;;;;;;;;;18.20;52.20;;;;;;5064375;28;20307;-76
2022/06/02 09:26:03;;;;;;;;;;;18.30;52.10;;;;;;5057462;28;19928;-77
2022/06/02 09:28:37;;;;;;;;;;;18.30;52.00;;;;;;5065540;28;20011;-75
2022/06/02 09:31:10;;;;;;;;;;;18.40;51.90;;;;;;5059141;28;20339;-75
2022/06/02 09:33:52;;;;;;;;;;;18.40;51.70;;;;;;5056023;28;19928;-75
2022/06/02 09:36:36;;;;;;;;;;;18.50;51.40;;;;;;5063872;28;19944;-76
2022/06/02 09:39:12;;;;;;;;;;;18.50;51.30;;;;;;5067875;28;19933;-76
2022/06/02 09:41:53;;;;;;;;;;;18.60;50.70;;;;;;5058897;28;20436;-77
2022/06/02 09:44:26;;;;;;;;;;;18.60;50.50;;;;;;5061033;28;20518;-77
2022/06/02 09:47:16;;;;;;;;;;;18.70;50.40;;;;;;5057478;28;19933;-77
2022/06/02 09:49:52;;;;;;;;;;;18.80;50.30;;;;;;5055801;28;19932;-76
2022/06/02 09:52:28;;;;;;;;;;;18.80;49.90;;;;;;5063571;28;20660;-77
2022/06/02 09:55:16;;;;;;;;;;;18.90;49.80;;;;;;5068469;28;19935;-78
2022/06/02 09:57:57;;;;;;;;;;;19.00;49.70;;;;;;5060990;28;20651;-76
2022/06/02 10:00:32;;;;;;;;;;;19.10;49.60;;;;;;5064506;28;20026;-76
2022/06/02 10:03:04;;;;;;;;;;;19.10;49.30;;;;;;5062423;28;19943;-75
2022/06/02 10:05:39;;;;;;;;;;;19.20;49.30;;;;;;5058779;28;19935;-75
2022/06/02 10:08:12;;;;;;;;;;;19.20;49.10;;;;;;5064154;28;19999;-75
2022/06/02 10:10:43;;;;;;;;;;;19.30;49.10;;;;;;5060608;28;20324;-75
2022/06/02 10:13:23;;;;;;;;;;;19.40;48.90;;;;;;5067314;28;20585;-75
2022/06/02 10:16:03;;;;;;;;;;;19.50;48.90;;;;;;5058956;28;20273;-77
2022/06/02 10:18:45;;;;;;;;;;;19.50;48.80;;;;;;5064343;28;19935;-75
2022/06/02 10:21:23;;;;;;;;;;;19.60;48.70;;;;;;5069167;28;20303;-76
2022/06/02 10:24:00;;;;;;;;;;;19.70;48.60;;;;;;5065368;28;19928;-76
2022/06/02 10:26:31;;;;;;;;;;;19.80;48.40;;;;;;5058305;28;20756;-77
2022/06/02 10:29:17;;;;;;;;;;;19.80;48.40;;;;;;5068284;28;19931;-76
2022/06/02 10:31:53;;;;;;;;;;;19.90;48.40;;;;;;5064289;28;19928;-76
2022/06/02 10:34:40;;;;;;;;;;;20.00;48.50;;;;;;5061711;28;19924;-76
2022/06/02 10:37:18;;;;;;;;;;;20.10;48.60;;;;;;5055474;28;19944;-75
2022/06/02 10:39:55;;;;;;;;;;;20.10;48.60;;;;;;5056621;28;19935;-76
2022/06/02 10:42:33;;;;;;;;;;;20.20;48.10;;;;;;5055632;28;19924;-78
2022/06/02 10:45:18;;;;;;;;;;;20.30;48.40;;;;;;5060376;28;20014;-76
2022/06/02 10:48:11;;;;;;;;;;;20.30;48.20;;;;;;5055611;28;20343;-77
2022/06/02 10:50:47;;;;;;;;;;;20.40;48.20;;;;;;5062498;28;19924;-74
2022/06/02 10:53:29;;;;;;;;;;;20.50;48.20;;;;;;5059138;28;19936;-74
2022/06/02 10:56:08;;;;;;;;;;;20.60;48.20;;;;;;5060255;28;20024;-76
2022/06/02 10:58:54;;;;;;;;;;;20.60;47.50;;;;;;5069510;28;19928;-75
2022/06/02 11:01:39;;;;;;;;;;;20.70;47.60;;;;;;5065410;28;19975;-75
2022/06/02 11:04:24;;;;;;;;;;;20.80;48.00;;;;;;5065391;28;19928;-74
2022/06/02 11:07:05;;;;;;;;;;;20.90;47.60;;;;;;5070601;28;19935;-74
2022/06/02 11:09:50;;;;;;;;;;;20.90;47.30;;;;;;5062243;28;19935;-75
2022/06/02 11:12:32;;;;;;;;;;;21.00;47.20;;;;;;5060396;28;20681;-77
2022/06/02 11:15:18;;;;;;;;;;;21.10;48.20;;;;;;5060754;28;19935;-77
2022/06/02 11:18:02;;;;;;;;;;;21.10;47.70;;;;;;5058120;28;19936;-74
2022/06/02 11:20:43;;;;;;;;;;;21.20;46.20;;;;;;5059074;28;19928;-78
2022/06/02 11:23:23;;;;;;;;;;;21.30;46.50;;;;;;5059202;28;19928;-75
2022/06/02 11:26:06;;;;;;;;;;;21.40;46.30;;;;;;5061564;28;20335;-77
2022/06/02 11:28:57;;;;;;;;;;;21.40;46.90;;;;;;5058784;28;19940;-74
2022/06/02 11:31:45;;;;;;;;;;;21.50;46.40;;;;;;5049298;28;19933;-76
2022/06/02 11:34:18;;;;;;;;;;;21.60;46.20;;;;;;5037758;28;19929;-75
2022/06/02 11:36:52;;;;;;;;;;;21.60;46.90;;;;;;5031042;28;19925;-77
2022/06/02 11:39:40;;;;;;;;;;;21.70;46.90;;;;;;5036698;28;19929;-74
2022/06/02 11:42:14;;;;;;;;;;;21.70;46.50;;;;;;5037351;28;19925;-75
2022/06/02 11:44:50;;;;;;;;;;;21.80;46.30;;;;;;5036773;28;19930;-74
2022/06/02 11:47:26;;;;;;;;;;;21.90;46.00;;;;;;5060487;28;19928;-76
2022/06/02 11:50:11;;;;;;;;;;;22.00;46.10;;;;;;5063213;28;19939;-76
2022/06/02 11:52:52;;;;;;;;;;;22.00;45.70;;;;;;5054111;28;19936;-75
2022/06/02 11:55:23;;;;;;;;;;;22.00;45.40;;;;;;5057730;28;19928;-76
2022/06/02 11:57:54;;;;;;;;;;;22.10;45.00;;;;;;5063358;28;19931;-75
2022/06/02 12:00:44;;;;;;;;;;;22.10;45.70;;;;;;5070179;28;19964;-76
2022/06/02 12:03:36;;;;;;;;;;;22.30;45.20;;;;;;5039133;28;19925;-76
2022/06/02 12:06:15;;;;;;;;;;;22.30;45.50;;;;;;5037693;28;20059;-75
2022/06/02 12:09:00;;;;;;;;;;;22.30;45.80;;;;;;5043296;28;19936;-75
2022/06/02 12:11:36;;;;;;;;;;;22.40;45.60;;;;;;5035356;28;20047;-74
2022/06/02 12:14:21;;;;;;;;;;;22.40;45.50;;;;;;5041650;28;20381;-74
2022/06/02 12:16:55;;;;;;;;;;;22.50;45.30;;;;;;5040938;28;19984;-74
2022/06/02 12:19:29;;;;;;;;;;;22.60;45.30;;;;;;5039762;28;19936;-74
2022/06/02 12:22:01;;;;;;;;;;;22.60;45.40;;;;;;5042690;28;19944;-74
2022/06/02 12:24:39;;;;;;;;;;;22.70;44.90;;;;;;5045548;28;20490;-75
2022/06/02 12:27:16;;;;;;;;;;;22.70;45.10;;;;;;5042705;28;20027;-75
2022/06/02 12:29:52;;;;;;;;;;;22.70;45.50;;;;;;5044871;28;20452;-75
2022/06/02 12:32:32;;;;;;;;;;;22.70;45.60;;;;;;5054985;28;20574;-74
2022/06/02 12:35:08;;;;;;;;;;;22.80;45.90;;;;;;5061549;28;19963;-78
2022/06/02 12:37:50;;;;;;;;;;;22.80;45.60;;;;;;5060698;28;19939;-76
2022/06/02 12:40:31;;;;;;;;;;;22.80;45.40;;;;;;5053073;28;19936;-78
2022/06/02 12:43:07;;;;;;;;;;;22.80;45.00;;;;;;5051410;28;20591;-76
2022/06/02 12:45:44;;;;;;;;;;;22.80;44.80;;;;;;5055414;28;19936;-76
2022/06/02 12:48:30;;;;;;;;;;;22.90;45.30;;;;;;5061589;28;19924;-76
2022/06/02 12:51:00;;;;;;;;;;;22.90;45.70;;;;;;5059871;28;19935;-76
2022/06/02 12:53:41;;;;;;;;;;;23.00;46.00;;;;;;5060835;28;19937;-76
2022/06/02 12:56:34;;;;;;;;;;;23.00;46.00;;;;;;5055885;28;19941;-75
2022/06/02 12:59:16;;;;;;;;;;;23.00;45.10;;;;;;5051982;28;20440;-75
2022/06/02 13:01:49;;;;;;;;;;;23.10;44.50;;;;;;5027648;28;19935;-77
2022/06/02 13:04:34;;;;;;;;;;;23.10;44.70;;;;;;5071805;28;20101;-74
2022/06/02 13:07:09;;;;;;;;;;;23.10;44.30;;;;;;5065673;28;20356;-74
2022/06/02 13:09:42;;;;;;;;;;;23.20;44.90;;;;;;5069875;28;19935;-77
2022/06/02 13:12:23;;;;;;;;;;;23.20;45.30;;;;;;5065169;28;19970;-74
2022/06/02 13:15:11;;;;;;;;;;;23.30;45.10;;;;;;5066573;28;22009;-76
2022/06/02 13:17:48;;;;;;;;;;;23.30;44.40;;;;;;5056975;28;19936;-74
2022/06/02 13:20:41;;;;;;;;;;;23.40;44.40;;;;;;5064166;28;19932;-77
2022/06/02 13:23:18;;;;;;;;;;;23.40;45.00;;;;;;5042812;28;19940;-75
2022/06/02 13:26:02;;;;;;;;;;;23.50;44.70;;;;;;5067506;28;19935;-77
2022/06/02 13:28:46;;;;;;;;;;;23.50;44.50;;;;;;5058470;28;19940;-74
2022/06/02 13:31:35;;;;;;;;;;;23.50;44.80;;;;;;5064267;28;19928;-77
2022/06/02 13:34:16;;;;;;;;;;;23.60;44.90;;;;;;5057884;28;19932;-75
2022/06/02 13:36:53;;;;;;;;;;;23.70;44.60;;;;;;5059524;28;19928;-75
2022/06/02 13:39:50;;;;;;;;;;;23.70;44.40;;;;;;5056115;28;19929;-75
2022/06/02 13:42:34;;;;;;;;;;;23.80;44.70;;;;;;5056295;28;19931;-76
2022/06/02 13:45:16;;;;;;;;;;;23.80;44.40;;;;;;5059722;28;19956;-76
2022/06/02 13:47:57;;;;;;;;;;;23.90;44.20;;;;;;5053338;28;20753;-75
2022/06/02 13:50:30;;;;;;;;;;;24.00;44.60;;;;;;5041386;28;19928;-75
2022/06/02 13:53:15;;;;;;;;;;;24.00;44.10;;;;;;5057017;28;19936;-75
2022/06/02 13:58:46;;;;;;;;;;;24.10;44.00;;;;;;5055644;28;20044;-75
2022/06/02 14:01:17;;;;;;;;;;;24.20;44.00;;;;;;5055125;28;19929;-75
2022/06/02 14:03:55;;;;;;;;;;;24.20;44.00;;;;;;5052834;28;19956;-74
2022/06/02 14:06:24;;;;;;;;;;;24.20;43.60;;;;;;5061171;28;19929;-75
2022/06/02 14:08:58;;;;;;;;;;;24.30;43.70;;;;;;5056161;28;20022;-66
2022/06/02 14:11:37;;;;;;;;;;;24.40;43.80;;;;;;5056712;28;19935;-68
2022/06/02 14:14:22;;;;;;;;;;;24.40;43.80;;;;;;5069462;28;19929;-67
2022/06/02 14:16:56;;;;;;;;;;;24.40;43.10;;;;;;5056730;28;19939;-67
2022/06/02 14:19:30;;;;;;;;;;;24.50;43.40;;;;;;5061620;28;19936;-69
2022/06/02 14:22:03;;;;;;;;;;;24.60;43.50;;;;;;5059171;28;20393;-67
2022/06/02 14:24:35;;;;;;;;;;;24.60;43.30;;;;;;5064205;28;19932;-69
2022/06/02 14:27:10;;;;;;;;;;;24.60;43.70;;;;;;5060020;28;19939;-67
2022/06/02 14:29:40;;;;;;;;;;;24.70;42.80;;;;;;5062209;28;19959;-69
2022/06/02 14:32:16;;;;;;;;;;;24.80;43.10;;;;;;5062855;28;19932;-66
2022/06/02 14:34:46;;;;;;;;;;;24.80;42.80;;;;;;5059289;28;19939;-66
2022/06/02 14:37:17;;;;;;;;;;;24.80;42.80;;;;;;5068835;28;19924;-66
2022/06/02 14:39:49;;;;;;;;;;;24.90;42.70;;;;;;5053327;28;19936;-67
2022/06/02 14:43:03;;;;;;;;;;;25.00;42.40;;;;;;5061615;28;20680;-69
2022/06/02 14:45:15;;;;;;;;;;;25.00;42.90;;;;;;5059193;28;19935;-65
2022/06/02 14:47:45;;;;;;;;;;;25.10;42.50;;;;;;5059358;28;19933;-69
2022/06/02 14:50:21;;;;;;;;;;;25.20;42.40;;;;;;5060911;28;19928;-66
2022/06/02 14:53:13;;;;;;;;;;;25.20;42.20;;;;;;5069068;28;19928;-67
2022/06/02 14:55:44;;;;;;;;;;;25.30;42.10;;;;;;5068842;28;19929;-68
2022/06/02 14:58:19;;;;;;;;;;;25.30;42.00;;;;;;5067237;28;19935;-66
2022/06/02 15:00:50;;;;;;;;;;;25.40;41.80;;;;;;5061070;28;20031;-69
2022/06/02 15:03:34;;;;;;;;;;;25.40;41.60;;;;;;5061218;28;19928;-68
2022/06/02 15:06:02;;;;;;;;;;;25.40;41.90;;;;;;5053047;28;19928;-69
2022/06/02 15:08:44;;;;;;;;;;;25.50;41.80;;;;;;5063862;28;20299;-70
2022/06/02 15:11:13;;;;;;;;;;;25.50;41.70;;;;;;5061618;28;19928;-68
2022/06/02 15:13:53;;;;;;;;;;;25.60;41.70;;;;;;5063432;28;20670;-74
2022/06/02 15:16:38;;;;;;;;;;;25.60;41.80;;;;;;5059433;28;19977;-77
2022/06/02 15:19:19;;;;;;;;;;;25.70;41.70;;;;;;5055884;28;19951;-75
2022/06/02 15:21:54;;;;;;;;;;;25.70;42.00;;;;;;5057997;28;19940;-75
2022/06/02 15:24:25;;;;;;;;;;;25.70;41.40;;;;;;5062795;28;19932;-74
2022/06/02 15:27:07;;;;;;;;;;;25.80;41.40;;;;;;5062664;28;19932;-73
2022/06/02 15:29:44;;;;;;;;;;;25.80;41.20;;;;;;5059025;28;19932;-73